Haworth, United Kingdom
Current Conditions -  °F | °C
As of 10:20 PM on Wednesday 28 Jan 2015 (Local Time) from EGNM Reporting Station
Scattered Clouds Scattered Clouds  
Wind Chill: 22°   Ceiling: Unl
Heat Index: 34°   Visibility: 6mi
Dew Point: 30°   Wind: 22mph
Humidity: 87%   Direction: 270°W
Pressure: 29.23"   Gusts: 33mph
Location:  53.83°N, 1.95°W
Report Text: EGNM 282220Z 27019G29KT 9999 FEW006 SCT015CB 01/M01 Q0990
Loading
Personal Weather Stations






























Interactive Weather Map New forecast layout! Learn more

10-Day Weather Forecast

Advertisements
Track Severe Weather on mobile